Time;durP1;ratioP1;P1;durP2;ratioP2;P2;SDS_P1;SDS_P2;PMS_P1;PMS_P2;Temp;Humidity;BMP_temperature;BMP_pressure;BME280_temperature;BME280_humidity;BME280_pressure;Samples;Min_cycle;Max_cycle;Signal;HPM_P1;HPM_P2
2022/03/27 00:00:25;;;;;;;;;;;;;;;;;;4983424;28;1373;-66
2022/03/27 00:02:51;;;;;;;;;;;;;;;;;;4983184;28;1635;-66
2022/03/27 00:05:16;;;;;;;;;;;;;;;;;;4982341;28;1362;-66
2022/03/27 00:07:41;;;;;;;;;;;;;;;;;;4983216;28;1200;-66
2022/03/27 00:10:06;;;;;;;;;;;;;;;;;;4982738;28;1961;-66
2022/03/27 00:12:32;;;;;;;;;;;;;;;;;;4983136;28;1253;-67
2022/03/27 00:14:57;;;;;;;;;;;;;;;;;;4981863;28;1604;-67
2022/03/27 00:17:23;;;;;;;;;;;;;;;;;;4983091;28;1299;-66
2022/03/27 00:19:49;;;;;;;;;;;;;;;;;;4982777;28;1088;-67
2022/03/27 00:22:14;;;;;;;;;;;;;;;;;;4983213;28;1284;-67
2022/03/27 00:24:40;;;;;;;;;;;;;;;;;;4982909;28;1494;-67
2022/03/27 00:27:05;;;;;;;;;;;;;;;;;;4982565;28;1367;-67
2022/03/27 00:29:30;;;;;;;;;;;;;;;;;;4982012;28;2152;-67
2022/03/27 00:31:56;;;;;;;;;;;;;;;;;;4983364;28;1338;-67
2022/03/27 00:34:21;;;;;;;;;;;;;;;;;;4982749;28;1252;-67
2022/03/27 00:36:46;;;;;;;;;;;;;;;;;;4982196;28;1281;-67
2022/03/27 00:39:12;;;;;;;;;;;;;;;;;;4982582;28;1363;-67
2022/03/27 00:41:37;;;;;;;;;;;;;;;;;;4982520;28;1336;-67
2022/03/27 00:44:03;;;;;;;;;;;;;;;;;;4981624;28;1662;-67
2022/03/27 00:46:28;;;;;;;;;;;;;;;;;;4982247;28;1422;-66
2022/03/27 00:48:54;;;;;;;;;;;;;;;;;;4982400;28;1139;-67
2022/03/27 00:51:19;;;;;;;;;;;;;;;;;;4981410;28;1902;-66
2022/03/27 00:53:44;;;;;;;;;;;;;;;;;;4982791;28;1575;-67
2022/03/27 00:56:09;;;;;;;;;;;;;;;;;;4982274;28;1253;-67
2022/03/27 00:58:34;;;;;;;;;;;;;;;;;;4982103;28;1261;-67
2022/03/27 01:01:18;;;;;;;;;;;;;;;;;;4984780;28;1249;-67
2022/03/27 01:03:43;;;;;;;;;;;;;;;;;;4982116;28;1234;-67
2022/03/27 01:06:27;;;;;;;;;;;;;;;;;;4981830;28;1279;-67
2022/03/27 01:11:36;;;;;;;;;;;;;;;;;;4982479;28;1148;-67
2022/03/27 01:14:01;;;;;;;;;;;;;;;;;;4982251;28;1158;-67
2022/03/27 01:16:30;;;;;;;;;;;;;;;;;;4981579;28;1363;-67
2022/03/27 01:18:56;;;;;;;;;;;;;;;;;;4981977;28;1177;-67
2022/03/27 01:21:21;;;;;;;;;;;;;;;;;;4981509;28;1532;-67
2022/03/27 01:23:46;;;;;;;;;;;;;;;;;;4982624;28;1253;-67
2022/03/27 01:26:12;;;;;;;;;;;;;;;;;;4981537;28;1330;-67
2022/03/27 01:28:37;;;;;;;;;;;;;;;;;;4981118;28;1671;-67
2022/03/27 01:31:05;;;;;;;;;;;;;;;;;;4981518;28;1886;-67
2022/03/27 01:33:30;;;;;;;;;;;;;;;;;;4981710;28;1221;-67
2022/03/27 01:35:55;;;;;;;;;;;;;;;;;;4982016;28;1343;-67
2022/03/27 01:38:20;;;;;;;;;;;;;;;;;;4981902;28;1237;-67
2022/03/27 01:40:46;;;;;;;;;;;;;;;;;;4981829;28;1240;-68
2022/03/27 01:43:11;;;;;;;;;;;;;;;;;;4980672;28;1580;-68
2022/03/27 01:45:36;;;;;;;;;;;;;;;;;;4981888;28;1343;-66
2022/03/27 01:48:01;;;;;;;;;;;;;;;;;;4982485;28;1575;-67
2022/03/27 01:50:26;;;;;;;;;;;;;;;;;;4981229;28;1894;-67
2022/03/27 01:52:51;;;;;;;;;;;;;;;;;;4981713;28;1296;-68
2022/03/27 01:55:17;;;;;;;;;;;;;;;;;;4981163;28;1276;-67
2022/03/27 01:57:43;;;;;;;;;;;;;;;;;;4981806;28;1292;-67
2022/03/27 02:00:09;;;;;;;;;;;;;;;;;;4981502;28;1239;-68
2022/03/27 02:02:34;;;;;;;;;;;;;;;;;;4982525;28;1674;-68
2022/03/27 02:05:01;;;;;;;;;;;;;;;;;;4980239;28;1572;-67
2022/03/27 02:07:26;;;;;;;;;;;;;;;;;;4980579;28;1635;-67
2022/03/27 02:09:51;;;;;;;;;;;;;;;;;;4981311;28;1895;-67
2022/03/27 02:12:17;;;;;;;;;;;;;;;;;;4981449;28;1082;-67
2022/03/27 02:14:42;;;;;;;;;;;;;;;;;;4980880;28;1603;-67
2022/03/27 02:17:08;;;;;;;;;;;;;;;;;;4981571;28;1392;-67
2022/03/27 02:19:33;;;;;;;;;;;;;;;;;;4981070;28;1335;-68
2022/03/27 02:21:58;;;;;;;;;;;;;;;;;;4981315;28;1642;-67
2022/03/27 02:24:24;;;;;;;;;;;;;;;;;;4980805;28;1428;-67
2022/03/27 02:26:50;;;;;;;;;;;;;;;;;;4981346;28;1342;-67
2022/03/27 02:29:16;;;;;;;;;;;;;;;;;;4981332;28;1961;-67
2022/03/27 02:31:41;;;;;;;;;;;;;;;;;;4981236;28;1296;-67
2022/03/27 02:34:06;;;;;;;;;;;;;;;;;;4982396;28;1256;-68
2022/03/27 02:36:32;;;;;;;;;;;;;;;;;;4979893;28;1569;-67
2022/03/27 02:38:57;;;;;;;;;;;;;;;;;;4981235;28;1305;-67
2022/03/27 02:41:22;;;;;;;;;;;;;;;;;;4980936;28;1125;-67
2022/03/27 02:43:47;;;;;;;;;;;;;;;;;;4980265;28;1767;-67
2022/03/27 02:46:12;;;;;;;;;;;;;;;;;;4980697;28;1358;-67
2022/03/27 02:48:37;;;;;;;;;;;;;;;;;;4980806;28;1276;-67
2022/03/27 02:51:03;;;;;;;;;;;;;;;;;;4980979;28;1902;-67
2022/03/27 02:53:28;;;;;;;;;;;;;;;;;;4981031;28;1386;-67
2022/03/27 02:55:53;;;;;;;;;;;;;;;;;;4980602;28;1451;-67
2022/03/27 02:58:18;;;;;;;;;;;;;;;;;;4979191;28;1473;-67
2022/03/27 03:00:44;;;;;;;;;;;;;;;;;;4980717;28;1166;-67
2022/03/27 03:03:10;;;;;;;;;;;;;;;;;;4980700;28;1162;-67
2022/03/27 03:05:37;;;;;;;;;;;;;;;;;;4980043;28;1367;-67
2022/03/27 03:08:02;;;;;;;;;;;;;;;;;;4980807;28;1309;-67
2022/03/27 03:10:29;;;;;;;;;;;;;;;;;;4980386;28;1970;-67
2022/03/27 03:12:54;;;;;;;;;;;;;;;;;;4980206;28;1639;-66
2022/03/27 03:15:20;;;;;;;;;;;;;;;;;;4980479;28;1354;-66
2022/03/27 03:17:45;;;;;;;;;;;;;;;;;;4980566;28;1242;-67
2022/03/27 03:20:11;;;;;;;;;;;;;;;;;;4980736;28;1248;-66
2022/03/27 03:22:37;;;;;;;;;;;;;;;;;;4978670;28;1708;-67
2022/03/27 03:25:03;;;;;;;;;;;;;;;;;;4980029;28;1241;-67
2022/03/27 03:27:28;;;;;;;;;;;;;;;;;;4979428;28;1572;-67
2022/03/27 03:29:54;;;;;;;;;;;;;;;;;;4981123;28;1911;-67
2022/03/27 03:32:22;;;;;;;;;;;;;;;;;;4980617;28;1285;-67
2022/03/27 03:34:47;;;;;;;;;;;;;;;;;;4980517;28;1324;-67
2022/03/27 03:37:12;;;;;;;;;;;;;;;;;;4980394;28;1275;-67
2022/03/27 03:39:37;;;;;;;;;;;;;;;;;;4979682;28;1755;-67
2022/03/27 03:42:03;;;;;;;;;;;;;;;;;;4983713;28;1201;-67
2022/03/27 03:44:28;;;;;;;;;;;;;;;;;;4984094;28;1399;-67
2022/03/27 03:46:54;;;;;;;;;;;;;;;;;;4983559;28;1327;-67
2022/03/27 03:49:20;;;;;;;;;;;;;;;;;;4983340;28;1914;-66
2022/03/27 03:51:46;;;;;;;;;;;;;;;;;;4983112;28;1201;-67
2022/03/27 03:54:11;;;;;;;;;;;;;;;;;;4982707;28;1576;-66
2022/03/27 03:56:38;;;;;;;;;;;;;;;;;;4982938;28;1272;-66
2022/03/27 03:59:04;;;;;;;;;;;;;;;;;;4983411;28;1268;-66
2022/03/27 04:01:29;;;;;;;;;;;;;;;;;;4982283;28;1588;-67
2022/03/27 04:03:54;;;;;;;;;;;;;;;;;;4982983;28;1312;-67
2022/03/27 04:06:20;;;;;;;;;;;;;;;;;;4983135;28;1300;-67
2022/03/27 04:08:45;;;;;;;;;;;;;;;;;;4983140;28;1297;-67
2022/03/27 04:11:16;;;;;;;;;;;;;;;;;;4983494;28;1890;-66
2022/03/27 04:13:41;;;;;;;;;;;;;;;;;;4983285;28;1175;-67
2022/03/27 04:16:07;;;;;;;;;;;;;;;;;;4981805;28;1525;-67
2022/03/27 04:18:32;;;;;;;;;;;;;;;;;;4983116;28;1307;-67
2022/03/27 04:20:57;;;;;;;;;;;;;;;;;;4982388;28;1608;-66
2022/03/27 04:23:22;;;;;;;;;;;;;;;;;;4982545;28;1965;-67
2022/03/27 04:25:47;;;;;;;;;;;;;;;;;;4981873;28;1561;-67
2022/03/27 04:28:12;;;;;;;;;;;;;;;;;;4982905;28;1351;-67
2022/03/27 04:30:38;;;;;;;;;;;;;;;;;;4982672;28;1890;-67
2022/03/27 04:33:03;;;;;;;;;;;;;;;;;;4983081;28;1383;-67
2022/03/27 04:35:28;;;;;;;;;;;;;;;;;;4981631;28;1501;-66
2022/03/27 04:37:54;;;;;;;;;;;;;;;;;;4982731;28;1766;-67
2022/03/27 04:40:19;;;;;;;;;;;;;;;;;;4982567;28;1241;-67
2022/03/27 04:42:44;;;;;;;;;;;;;;;;;;4982501;28;1296;-66
2022/03/27 04:45:11;;;;;;;;;;;;;;;;;;4982289;28;1538;-67
2022/03/27 04:47:36;;;;;;;;;;;;;;;;;;4982505;28;1467;-66
2022/03/27 04:50:02;;;;;;;;;;;;;;;;;;4982628;28;1965;-67
2022/03/27 04:52:27;;;;;;;;;;;;;;;;;;4980091;28;1620;-66
2022/03/27 04:54:52;;;;;;;;;;;;;;;;;;4982282;28;1623;-67
2022/03/27 04:57:17;;;;;;;;;;;;;;;;;;4981829;28;1384;-66
2022/03/27 04:59:43;;;;;;;;;;;;;;;;;;4982535;28;1276;-66
2022/03/27 05:02:08;;;;;;;;;;;;;;;;;;4982114;28;1371;-66
2022/03/27 05:04:33;;;;;;;;;;;;;;;;;;4982625;28;1265;-68
2022/03/27 05:06:58;;;;;;;;;;;;;;;;;;4981322;28;1505;-67
2022/03/27 05:09:24;;;;;;;;;;;;;;;;;;4981865;28;1965;-68
2022/03/27 05:11:49;;;;;;;;;;;;;;;;;;4984082;28;1256;-67
2022/03/27 05:14:14;;;;;;;;;;;;;;;;;;4982711;28;1308;-67
2022/03/27 05:16:39;;;;;;;;;;;;;;;;;;4980655;28;1344;-67
2022/03/27 05:19:05;;;;;;;;;;;;;;;;;;4982488;28;1311;-67
2022/03/27 05:21:31;;;;;;;;;;;;;;;;;;4979372;28;1573;-67
2022/03/27 05:23:56;;;;;;;;;;;;;;;;;;4982124;28;1066;-68
2022/03/27 05:26:21;;;;;;;;;;;;;;;;;;4981954;28;1252;-67
2022/03/27 05:28:47;;;;;;;;;;;;;;;;;;4981935;28;1240;-67
2022/03/27 05:31:12;;;;;;;;;;;;;;;;;;4982147;28;1898;-67
2022/03/27 05:33:38;;;;;;;;;;;;;;;;;;4983241;28;1193;-67
2022/03/27 05:36:07;;;;;;;;;;;;;;;;;;4980518;28;1686;-67
2022/03/27 05:38:33;;;;;;;;;;;;;;;;;;4981465;28;1114;-67
2022/03/27 05:40:58;;;;;;;;;;;;;;;;;;4980366;28;1197;-67
2022/03/27 05:43:24;;;;;;;;;;;;;;;;;;4981255;28;1304;-67
2022/03/27 05:45:50;;;;;;;;;;;;;;;;;;4981254;28;1338;-67
2022/03/27 05:48:15;;;;;;;;;;;;;;;;;;4981106;28;1589;-67
2022/03/27 05:50:40;;;;;;;;;;;;;;;;;;4981646;28;1990;-70
2022/03/27 05:53:06;;;;;;;;;;;;;;;;;;4980971;28;1323;-68
2022/03/27 05:55:31;;;;;;;;;;;;;;;;;;4981243;28;1304;-68
2022/03/27 05:57:56;;;;;;;;;;;;;;;;;;4981499;28;1316;-68
2022/03/27 06:00:22;;;;;;;;;;;;;;;;;;4981264;28;1260;-68
2022/03/27 06:02:49;;;;;;;;;;;;;;;;;;4978216;28;1628;-68
2022/03/27 06:05:17;;;;;;;;;;;;;;;;;;4980516;28;1351;-69
2022/03/27 06:07:46;;;;;;;;;;;;;;;;;;4981680;28;1156;-68
2022/03/27 06:10:12;;;;;;;;;;;;;;;;;;4980094;28;1898;-68
2022/03/27 06:12:37;;;;;;;;;;;;;;;;;;4980819;28;1265;-69
2022/03/27 06:15:02;;;;;;;;;;;;;;;;;;4980598;28;1233;-69
2022/03/27 06:17:27;;;;;;;;;;;;;;;;;;4979536;28;1648;-68
2022/03/27 06:19:53;;;;;;;;;;;;;;;;;;4980989;28;1339;-68
2022/03/27 06:22:18;;;;;;;;;;;;;;;;;;4980276;28;1170;-69
2022/03/27 06:24:44;;;;;;;;;;;;;;;;;;4981153;28;1300;-68
2022/03/27 06:27:09;;;;;;;;;;;;;;;;;;4980952;28;1263;-68
2022/03/27 06:29:34;;;;;;;;;;;;;;;;;;4981000;28;1963;-68
2022/03/27 06:31:59;;;;;;;;;;;;;;;;;;4979515;28;1497;-69
2022/03/27 06:34:26;;;;;;;;;;;;;;;;;;4981860;28;1586;-68
2022/03/27 06:36:51;;;;;;;;;;;;;;;;;;4979468;28;1552;-69
2022/03/27 06:39:16;;;;;;;;;;;;;;;;;;4980558;28;1379;-69
2022/03/27 06:41:41;;;;;;;;;;;;;;;;;;4980680;28;1296;-68
2022/03/27 06:44:06;;;;;;;;;;;;;;;;;;4978883;28;1572;-69
2022/03/27 06:46:32;;;;;;;;;;;;;;;;;;4980218;28;1308;-69
2022/03/27 06:48:57;;;;;;;;;;;;;;;;;;4980076;28;1273;-68
2022/03/27 06:51:22;;;;;;;;;;;;;;;;;;4980740;28;1898;-66
2022/03/27 06:53:47;;;;;;;;;;;;;;;;;;4980410;28;1241;-67
2022/03/27 06:56:13;;;;;;;;;;;;;;;;;;4979133;28;1699;-67
2022/03/27 06:58:38;;;;;;;;;;;;;;;;;;4980290;28;1360;-68
2022/03/27 07:03:47;;;;;;;;;;;;;;;;;;4981359;28;1159;-69
2022/03/27 07:06:16;;;;;;;;;;;;;;;;;;4980480;28;1291;-69
2022/03/27 07:08:42;;;;;;;;;;;;;;;;;;4979288;28;1711;-68
2022/03/27 07:11:07;;;;;;;;;;;;;;;;;;4980504;28;1961;-68
2022/03/27 07:13:33;;;;;;;;;;;;;;;;;;4979677;28;1651;-68
2022/03/27 07:15:58;;;;;;;;;;;;;;;;;;4981646;28;1477;-66
2022/03/27 07:18:24;;;;;;;;;;;;;;;;;;4984203;28;1212;-67
2022/03/27 07:20:50;;;;;;;;;;;;;;;;;;4984202;28;1166;-67
2022/03/27 07:23:17;;;;;;;;;;;;;;;;;;4984430;28;1385;-67
2022/03/27 07:25:44;;;;;;;;;;;;;;;;;;4982997;28;1710;-67
2022/03/27 07:28:09;;;;;;;;;;;;;;;;;;4982990;28;1616;-68
2022/03/27 07:30:35;;;;;;;;;;;;;;;;;;4982310;28;1962;-67
2022/03/27 07:33:02;;;;;;;;;;;;;;;;;;4983183;28;1198;-68
2022/03/27 07:35:30;;;;;;;;;;;;;;;;;;4982668;28;1723;-68
2022/03/27 07:37:55;;;;;;;;;;;;;;;;;;4983117;28;1324;-68
2022/03/27 07:40:20;;;;;;;;;;;;;;;;;;4983861;28;1295;-68
2022/03/27 07:42:50;;;;;;;;;;;;;;;;;;4983705;28;1324;-68
2022/03/27 07:45:18;;;;;;;;;;;;;;;;;;4983286;28;1271;-68
2022/03/27 07:47:43;;;;;;;;;;;;;;;;;;4983406;28;1252;-69
2022/03/27 07:50:09;;;;;;;;;;;;;;;;;;4982723;28;1911;-68
2022/03/27 07:52:34;;;;;;;;;;;;;;;;;;4983669;28;1311;-68
2022/03/27 07:55:00;;;;;;;;;;;;;;;;;;4983316;28;1245;-68
2022/03/27 07:57:26;;;;;;;;;;;;;;;;;;4983166;28;1229;-68
2022/03/27 07:59:51;;;;;;;;;;;;;;;;;;4983657;28;1288;-68
2022/03/27 08:02:18;;;;;;;;;;;;;;;;;;4983305;28;1074;-68
2022/03/27 08:04:43;;;;;;;;;;;;;;;;;;4982646;28;1576;-68
2022/03/27 08:07:09;;;;;;;;;;;;;;;;;;4983107;28;1580;-67
2022/03/27 08:09:34;;;;;;;;;;;;;;;;;;4983477;28;1960;-68
2022/03/27 08:11:59;;;;;;;;;;;;;;;;;;4981725;28;1996;-68
2022/03/27 08:14:28;;;;;;;;;;;;;;;;;;4983211;28;1257;-68
2022/03/27 08:16:53;;;;;;;;;;;;;;;;;;4981732;28;1652;-68
2022/03/27 08:19:19;;;;;;;;;;;;;;;;;;4981864;28;1268;-68
2022/03/27 08:21:44;;;;;;;;;;;;;;;;;;4982958;28;1253;-68
2022/03/27 08:24:09;;;;;;;;;;;;;;;;;;4982832;28;1241;-68
2022/03/27 08:29:18;;;;;;;;;;;;;;;;;;4983314;28;1180;-70
2022/03/27 08:31:43;;;;;;;;;;;;;;;;;;4982084;28;1894;-69
2022/03/27 08:34:09;;;;;;;;;;;;;;;;;;4982081;28;1201;-69
2022/03/27 08:36:34;;;;;;;;;;;;;;;;;;4981695;28;1396;-69
2022/03/27 08:38:59;;;;;;;;;;;;;;;;;;4983296;28;1456;-69
2022/03/27 08:41:24;;;;;;;;;;;;;;;;;;4982733;28;1261;-69
2022/03/27 08:43:58;;;;;;;;;;;;;;;;;;4982414;28;1390;-69
2022/03/27 08:46:23;;;;;;;;;;;;;;;;;;4980845;28;1572;-69
2022/03/27 08:48:50;;;;;;;;;;;;;;;;;;4981657;28;1279;-70
2022/03/27 08:51:15;;;;;;;;;;;;;;;;;;4982790;28;1898;-70
2022/03/27 08:53:51;;;;;;;;;;;;;;;;;;4981232;28;1544;-69
2022/03/27 08:56:16;;;;;;;;;;;;;;;;;;4981685;28;1288;-70
2022/03/27 08:58:42;;;;;;;;;;;;;;;;;;4983213;28;1178;-70
2022/03/27 09:01:08;;;;;;;;;;;;;;;;;;4981811;28;1648;-69
2022/03/27 09:03:33;;;;;;;;;;;;;;;;;;4982162;28;1170;-69
2022/03/27 09:06:00;;;;;;;;;;;;;;;;;;4980076;28;1505;-69
2022/03/27 09:08:26;;;;;;;;;;;;;;;;;;4980590;28;1548;-69
2022/03/27 09:10:51;;;;;;;;;;;;;;;;;;4981916;28;1902;-68
2022/03/27 09:13:17;;;;;;;;;;;;;;;;;;4980324;28;1631;-68
2022/03/27 09:15:43;;;;;;;;;;;;;;;;;;4981179;28;1564;-68
2022/03/27 09:18:09;;;;;;;;;;;;;;;;;;4983264;28;1188;-68
2022/03/27 09:20:36;;;;;;;;;;;;;;;;;;4980544;28;1395;-68
2022/03/27 09:23:07;;;;;;;;;;;;;;;;;;4981990;28;1237;-69
2022/03/27 09:25:41;;;;;;;;;;;;;;;;;;4979872;28;1247;-68
2022/03/27 09:28:07;;;;;;;;;;;;;;;;;;4981276;28;1225;-69
2022/03/27 09:30:36;;;;;;;;;;;;;;;;;;4983737;28;1906;-69
2022/03/27 09:33:01;;;;;;;;;;;;;;;;;;4981526;28;1172;-68
2022/03/27 09:35:27;;;;;;;;;;;;;;;;;;4980115;28;1517;-67
2022/03/27 09:37:52;;;;;;;;;;;;;;;;;;4979932;28;1248;-67
2022/03/27 09:40:17;;;;;;;;;;;;;;;;;;4980951;28;1309;-68
2022/03/27 09:42:43;;;;;;;;;;;;;;;;;;4982564;28;1241;-68
2022/03/27 09:45:19;;;;;;;;;;;;;;;;;;4983329;28;1217;-68
2022/03/27 09:47:48;;;;;;;;;;;;;;;;;;4981263;28;1183;-68
2022/03/27 09:50:30;;;;;;;;;;;;;;;;;;4981300;28;1886;-69
2022/03/27 09:53:17;;;;;;;;;;;;;;;;;;4981871;28;1163;-68
2022/03/27 09:55:42;;;;;;;;;;;;;;;;;;4982193;28;1385;-69
2022/03/27 09:58:09;;;;;;;;;;;;;;;;;;4982250;28;1363;-68
2022/03/27 10:00:34;;;;;;;;;;;;;;;;;;4981671;28;1268;-69
2022/03/27 10:03:07;;;;;;;;;;;;;;;;;;4982256;28;1300;-69
2022/03/27 10:05:33;;;;;;;;;;;;;;;;;;4979155;28;1572;-69
2022/03/27 10:07:58;;;;;;;;;;;;;;;;;;4981401;28;1355;-69
2022/03/27 10:10:24;;;;;;;;;;;;;;;;;;4981891;28;1898;-69
2022/03/27 10:12:50;;;;;;;;;;;;;;;;;;4981076;28;1579;-69
2022/03/27 10:15:17;;;;;;;;;;;;;;;;;;4981187;28;1364;-69
2022/03/27 10:17:45;;;;;;;;;;;;;;;;;;4983005;28;1236;-69
2022/03/27 10:20:12;;;;;;;;;;;;;;;;;;4981524;28;1146;-69
2022/03/27 10:22:40;;;;;;;;;;;;;;;;;;4979251;28;1571;-69
2022/03/27 10:25:08;;;;;;;;;;;;;;;;;;4981269;28;1281;-69
2022/03/27 10:27:34;;;;;;;;;;;;;;;;;;4981057;28;1746;-69
2022/03/27 10:29:59;;;;;;;;;;;;;;;;;;4982364;28;1894;-69
2022/03/27 10:32:25;;;;;;;;;;;;;;;;;;4982474;28;1221;-70
2022/03/27 10:34:59;;;;;;;;;;;;;;;;;;4982252;28;1300;-69
2022/03/27 10:37:43;;;;;;;;;;;;;;;;;;4981208;28;1557;-69
2022/03/27 10:40:11;;;;;;;;;;;;;;;;;;4981427;28;1328;-69
2022/03/27 10:42:57;;;;;;;;;;;;;;;;;;4981116;28;1237;-69
2022/03/27 10:45:22;;;;;;;;;;;;;;;;;;4980633;28;1338;-70
2022/03/27 10:48:06;;;;;;;;;;;;;;;;;;4982946;28;1568;-69
2022/03/27 10:50:43;;;;;;;;;;;;;;;;;;4980736;28;1964;-69
2022/03/27 10:53:09;;;;;;;;;;;;;;;;;;4984008;28;1379;-69
2022/03/27 10:55:36;;;;;;;;;;;;;;;;;;4984613;28;1370;-69
2022/03/27 10:58:21;;;;;;;;;;;;;;;;;;4984524;28;1371;-69
2022/03/27 11:00:47;;;;;;;;;;;;;;;;;;4982819;28;1241;-69
2022/03/27 11:03:32;;;;;;;;;;;;;;;;;;4983577;28;1568;-68
2022/03/27 11:05:57;;;;;;;;;;;;;;;;;;4983458;28;1327;-67
2022/03/27 11:08:23;;;;;;;;;;;;;;;;;;4984778;28;1301;-71
2022/03/27 11:10:54;;;;;;;;;;;;;;;;;;4983381;28;1902;-70
2022/03/27 11:13:40;;;;;;;;;;;;;;;;;;4983969;28;1137;-70
2022/03/27 11:16:06;;;;;;;;;;;;;;;;;;4983648;28;1342;-70
2022/03/27 11:18:50;;;;;;;;;;;;;;;;;;4983149;28;1384;-70
2022/03/27 11:21:27;;;;;;;;;;;;;;;;;;4983462;28;1290;-70
2022/03/27 11:23:53;;;;;;;;;;;;;;;;;;4982080;28;1620;-70
2022/03/27 11:26:21;;;;;;;;;;;;;;;;;;4983020;28;1259;-70
2022/03/27 11:28:53;;;;;;;;;;;;;;;;;;4983500;28;1253;-70
2022/03/27 11:31:26;;;;;;;;;;;;;;;;;;4983290;28;1898;-70
2022/03/27 11:34:14;;;;;;;;;;;;;;;;;;4983784;28;1153;-70
2022/03/27 11:36:40;;;;;;;;;;;;;;;;;;4982791;28;1256;-70
2022/03/27 11:39:07;;;;;;;;;;;;;;;;;;4982366;28;1616;-70
2022/03/27 11:41:37;;;;;;;;;;;;;;;;;;4983803;28;1304;-70
2022/03/27 11:44:24;;;;;;;;;;;;;;;;;;4982899;28;1181;-70
2022/03/27 11:46:49;;;;;;;;;;;;;;;;;;4982873;28;1264;-70
2022/03/27 11:49:15;;;;;;;;;;;;;;;;;;4983194;28;1265;-69
2022/03/27 11:51:40;;;;;;;;;;;;;;;;;;4983208;28;1969;-70
2022/03/27 11:54:16;;;;;;;;;;;;;;;;;;4982412;28;1569;-70
2022/03/27 11:56:54;;;;;;;;;;;;;;;;;;4982811;28;1300;-69
2022/03/27 11:59:19;;;;;;;;;;;;;;;;;;4984152;28;1226;-70
2022/03/27 12:01:52;;;;;;;;;;;;;;;;;;4982378;28;1319;-70
2022/03/27 12:04:18;;;;;;;;;;;;;;;;;;4978574;28;1642;-69
2022/03/27 12:06:44;;;;;;;;;;;;;;;;;;4981863;28;1595;-69
2022/03/27 12:09:09;;;;;;;;;;;;;;;;;;4982850;28;1534;-70
2022/03/27 12:11:34;;;;;;;;;;;;;;;;;;4982773;28;1890;-70
2022/03/27 12:14:07;;;;;;;;;;;;;;;;;;4982125;28;1639;-69
2022/03/27 12:16:32;;;;;;;;;;;;;;;;;;4982857;28;1205;-70
2022/03/27 12:18:58;;;;;;;;;;;;;;;;;;4982559;28;1304;-70
2022/03/27 12:21:24;;;;;;;;;;;;;;;;;;4982466;28;1445;-70
2022/03/27 12:23:51;;;;;;;;;;;;;;;;;;4981781;28;1659;-69
2022/03/27 12:31:54;;;;;;;;;;;;;;;;;;4981490;28;1942;-70
2022/03/27 12:34:19;;;;;;;;;;;;;;;;;;4982002;28;1244;-69
2022/03/27 12:37:14;;;;;;;;;;;;;;;;;;4981524;28;1384;-69
2022/03/27 12:39:40;;;;;;;;;;;;;;;;;;4981626;28;1276;-69
2022/03/27 12:42:06;;;;;;;;;;;;;;;;;;4982415;28;1297;-69
2022/03/27 12:44:48;;;;;;;;;;;;;;;;;;4982654;28;1303;-70
2022/03/27 12:47:14;;;;;;;;;;;;;;;;;;4980876;28;1573;-69
2022/03/27 12:49:49;;;;;;;;;;;;;;;;;;4982658;28;1906;-69
2022/03/27 12:52:14;;;;;;;;;;;;;;;;;;4981577;28;1357;-70
2022/03/27 12:54:56;;;;;;;;;;;;;;;;;;4981832;28;1623;-69
2022/03/27 12:57:21;;;;;;;;;;;;;;;;;;4981217;28;1259;-70
2022/03/27 12:59:46;;;;;;;;;;;;;;;;;;4982501;28;1268;-70
2022/03/27 13:02:27;;;;;;;;;;;;;;;;;;4980567;28;1643;-70
2022/03/27 13:05:01;;;;;;;;;;;;;;;;;;4981331;28;1273;-70
2022/03/27 13:07:45;;;;;;;;;;;;;;;;;;4982762;28;1260;-70
2022/03/27 13:10:11;;;;;;;;;;;;;;;;;;4981614;28;1898;-70
2022/03/27 13:12:36;;;;;;;;;;;;;;;;;;4981843;28;1201;-70
2022/03/27 13:15:03;;;;;;;;;;;;;;;;;;4981800;28;1343;-70
2022/03/27 13:17:28;;;;;;;;;;;;;;;;;;4982145;28;1340;-70
2022/03/27 13:19:53;;;;;;;;;;;;;;;;;;4984537;28;1347;-69
2022/03/27 13:22:18;;;;;;;;;;;;;;;;;;4978982;28;1624;-69
2022/03/27 13:24:48;;;;;;;;;;;;;;;;;;4980397;28;1642;-69
2022/03/27 13:27:13;;;;;;;;;;;;;;;;;;4981627;28;1263;-70
2022/03/27 13:29:38;;;;;;;;;;;;;;;;;;4981875;28;1971;-70
2022/03/27 13:32:04;;;;;;;;;;;;;;;;;;4981695;28;1257;-69
2022/03/27 13:34:29;;;;;;;;;;;;;;;;;;4980003;28;1560;-69
2022/03/27 13:36:55;;;;;;;;;;;;;;;;;;4980794;28;1335;-69
2022/03/27 13:39:21;;;;;;;;;;;;;;;;;;4982736;28;1548;-69
2022/03/27 13:44:31;;;;;;;;;;;;;;;;;;4981489;28;1034;-69
2022/03/27 13:46:57;;;;;;;;;;;;;;;;;;4980851;28;1288;-69
2022/03/27 13:49:24;;;;;;;;;;;;;;;;;;4981048;28;1620;-69
2022/03/27 13:51:49;;;;;;;;;;;;;;;;;;4981369;28;1910;-69
2022/03/27 13:54:15;;;;;;;;;;;;;;;;;;4981532;28;1338;-70
2022/03/27 13:56:41;;;;;;;;;;;;;;;;;;4979053;28;1568;-69
2022/03/27 13:59:10;;;;;;;;;;;;;;;;;;4981180;28;1197;-69
2022/03/27 14:01:36;;;;;;;;;;;;;;;;;;4979768;28;1548;-69
2022/03/27 14:04:06;;;;;;;;;;;;;;;;;;4981345;28;1256;-69
2022/03/27 14:06:31;;;;;;;;;;;;;;;;;;4981051;28;1271;-69
2022/03/27 14:08:57;;;;;;;;;;;;;;;;;;4980965;28;1501;-69
2022/03/27 14:11:22;;;;;;;;;;;;;;;;;;4981080;28;1902;-69
2022/03/27 14:13:47;;;;;;;;;;;;;;;;;;4981181;28;1272;-69
2022/03/27 14:16:13;;;;;;;;;;;;;;;;;;4962704;28;1541;-69
2022/03/27 14:18:39;;;;;;;;;;;;;;;;;;4980814;28;1373;-69
2022/03/27 14:21:04;;;;;;;;;;;;;;;;;;4982370;28;1269;-69
2022/03/27 14:23:29;;;;;;;;;;;;;;;;;;4981476;28;1260;-69
2022/03/27 14:25:57;;;;;;;;;;;;;;;;;;4981489;28;1336;-69
2022/03/27 14:28:23;;;;;;;;;;;;;;;;;;4981183;28;1256;-69
2022/03/27 14:30:48;;;;;;;;;;;;;;;;;;4979782;28;1957;-69
2022/03/27 14:33:13;;;;;;;;;;;;;;;;;;4981471;28;1272;-69
2022/03/27 14:35:39;;;;;;;;;;;;;;;;;;4980719;28;1260;-69
2022/03/27 14:38:05;;;;;;;;;;;;;;;;;;4980753;28;1297;-69
2022/03/27 14:40:32;;;;;;;;;;;;;;;;;;4980207;28;1623;-69
2022/03/27 14:42:57;;;;;;;;;;;;;;;;;;4982384;28;1237;-69
2022/03/27 14:45:23;;;;;;;;;;;;;;;;;;4979726;28;1823;-69
2022/03/27 14:47:48;;;;;;;;;;;;;;;;;;4980804;28;1253;-69
2022/03/27 14:50:16;;;;;;;;;;;;;;;;;;4980881;28;1910;-69
2022/03/27 14:52:41;;;;;;;;;;;;;;;;;;4980650;28;1319;-69
2022/03/27 14:57:54;;;;;;;;;;;;;;;;;;4980930;28;1108;-70
2022/03/27 15:00:19;;;;;;;;;;;;;;;;;;4978361;28;1213;-70
2022/03/27 15:02:45;;;;;;;;;;;;;;;;;;4979393;28;1533;-70
2022/03/27 15:05:10;;;;;;;;;;;;;;;;;;4980237;28;1256;-70
2022/03/27 15:07:35;;;;;;;;;;;;;;;;;;4980070;28;1253;-70
2022/03/27 15:10:01;;;;;;;;;;;;;;;;;;4980823;28;1903;-70
2022/03/27 15:12:26;;;;;;;;;;;;;;;;;;4979330;28;1207;-70
2022/03/27 15:14:51;;;;;;;;;;;;;;;;;;4979732;28;1628;-70
2022/03/27 15:17:16;;;;;;;;;;;;;;;;;;4979962;28;1354;-70
2022/03/27 15:19:42;;;;;;;;;;;;;;;;;;4980348;28;1256;-70
2022/03/27 15:22:08;;;;;;;;;;;;;;;;;;4979406;28;1560;-70
2022/03/27 15:24:33;;;;;;;;;;;;;;;;;;4979942;28;1257;-70
2022/03/27 15:26:59;;;;;;;;;;;;;;;;;;4980246;28;1339;-70
2022/03/27 15:29:25;;;;;;;;;;;;;;;;;;4979587;28;1293;-70
2022/03/27 15:31:50;;;;;;;;;;;;;;;;;;4979917;28;1969;-70
2022/03/27 15:34:15;;;;;;;;;;;;;;;;;;4980353;28;1320;-70
2022/03/27 15:36:40;;;;;;;;;;;;;;;;;;4979865;28;1670;-70
2022/03/27 15:39:06;;;;;;;;;;;;;;;;;;4983212;28;1249;-70
2022/03/27 15:41:31;;;;;;;;;;;;;;;;;;4982196;28;1789;-70
2022/03/27 15:43:56;;;;;;;;;;;;;;;;;;4983595;28;1273;-70
2022/03/27 15:46:21;;;;;;;;;;;;;;;;;;4982047;28;1567;-70
2022/03/27 15:48:47;;;;;;;;;;;;;;;;;;4981860;28;1287;-70
2022/03/27 15:51:12;;;;;;;;;;;;;;;;;;4980629;28;1902;-70
2022/03/27 15:53:37;;;;;;;;;;;;;;;;;;4982200;28;1666;-70
2022/03/27 15:56:05;;;;;;;;;;;;;;;;;;4982198;28;1356;-70
2022/03/27 15:58:32;;;;;;;;;;;;;;;;;;4983404;28;1213;-70
2022/03/27 16:00:57;;;;;;;;;;;;;;;;;;4981958;28;1355;-70
2022/03/27 16:03:23;;;;;;;;;;;;;;;;;;4983222;28;1280;-70
2022/03/27 16:05:49;;;;;;;;;;;;;;;;;;4987410;28;1620;-70
2022/03/27 16:08:14;;;;;;;;;;;;;;;;;;4987649;28;1288;-70
2022/03/27 16:10:39;;;;;;;;;;;;;;;;;;4982767;28;1894;-70
2022/03/27 16:13:05;;;;;;;;;;;;;;;;;;4982647;28;1193;-70
2022/03/27 16:15:30;;;;;;;;;;;;;;;;;;4981685;28;1668;-70
2022/03/27 16:17:55;;;;;;;;;;;;;;;;;;4982015;28;1316;-70
2022/03/27 16:20:21;;;;;;;;;;;;;;;;;;4981961;28;1620;-70
2022/03/27 16:22:46;;;;;;;;;;;;;;;;;;4982758;28;1312;-70
2022/03/27 16:25:11;;;;;;;;;;;;;;;;;;4982132;28;1281;-70
2022/03/27 16:27:37;;;;;;;;;;;;;;;;;;4982828;28;1312;-68
2022/03/27 16:30:04;;;;;;;;;;;;;;;;;;4981657;28;1906;-68
2022/03/27 16:32:31;;;;;;;;;;;;;;;;;;4982169;28;1188;-69
2022/03/27 16:34:56;;;;;;;;;;;;;;;;;;4980426;28;1873;-69
2022/03/27 16:37:23;;;;;;;;;;;;;;;;;;4982734;28;1808;-69
2022/03/27 16:39:48;;;;;;;;;;;;;;;;;;4982564;28;1344;-70
2022/03/27 16:42:14;;;;;;;;;;;;;;;;;;4972131;28;1245;-69
2022/03/27 16:44:39;;;;;;;;;;;;;;;;;;4982508;28;1253;-69
2022/03/27 16:47:04;;;;;;;;;;;;;;;;;;4981867;28;1266;-69
2022/03/27 16:49:29;;;;;;;;;;;;;;;;;;4983126;28;1248;-69
2022/03/27 16:51:55;;;;;;;;;;;;;;;;;;4981618;28;1965;-69
2022/03/27 16:54:20;;;;;;;;;;;;;;;;;;4981523;28;1606;-70
2022/03/27 16:56:46;;;;;;;;;;;;;;;;;;4980945;28;1593;-70
2022/03/27 16:59:11;;;;;;;;;;;;;;;;;;4982181;28;1339;-69
2022/03/27 17:01:36;;;;;;;;;;;;;;;;;;4982601;28;1319;-69
2022/03/27 17:04:02;;;;;;;;;;;;;;;;;;4981972;28;1256;-69
2022/03/27 17:06:28;;;;;;;;;;;;;;;;;;4981797;28;1257;-69
2022/03/27 17:08:56;;;;;;;;;;;;;;;;;;4982154;28;1312;-69
2022/03/27 17:11:24;;;;;;;;;;;;;;;;;;4981935;28;1970;-69
2022/03/27 17:14:10;;;;;;;;;;;;;;;;;;4980945;28;1170;-73
2022/03/27 17:16:35;;;;;;;;;;;;;;;;;;4980943;28;1428;-74
2022/03/27 17:19:01;;;;;;;;;;;;;;;;;;4981455;28;1249;-76